sensor_id;sensor_type;location;lat;lon;timestamp;P1;durP1;ratioP1;P2;durP2;ratioP2
70951;SDS011;69214;55.880;37.542;2023-12-20T00:00:00;0.70;;;0.20;;
70951;SDS011;69214;55.880;37.542;2023-12-20T00:02:26;0.50;;;0.10;;
70951;SDS011;69214;55.880;37.542;2023-12-20T00:04:52;0.90;;;0.20;;
70951;SDS011;69214;55.880;37.542;2023-12-20T00:07:18;0.93;;;0.15;;
70951;SDS011;69214;55.880;37.542;2023-12-20T00:09:44;0.50;;;0.10;;
70951;SDS011;69214;55.880;37.542;2023-12-20T00:12:10;0.57;;;0.15;;
70951;SDS011;69214;55.880;37.542;2023-12-20T00:14:36;0.85;;;0.10;;
70951;SDS011;69214;55.880;37.542;2023-12-20T00:17:01;1.03;;;0.20;;
70951;SDS011;69214;55.880;37.542;2023-12-20T00:19:27;1.20;;;0.30;;
70951;SDS011;69214;55.880;37.542;2023-12-20T00:21:54;1.42;;;0.22;;
70951;SDS011;69214;55.880;37.542;2023-12-20T00:24:19;2.20;;;0.27;;
70951;SDS011;69214;55.880;37.542;2023-12-20T00:26:47;1.33;;;0.22;;
70951;SDS011;69214;55.880;37.542;2023-12-20T00:29:13;3.13;;;0.30;;
70951;SDS011;69214;55.880;37.542;2023-12-20T00:31:39;0.60;;;0.17;;
70951;SDS011;69214;55.880;37.542;2023-12-20T00:34:05;0.68;;;0.10;;
70951;SDS011;69214;55.880;37.542;2023-12-20T00:36:31;0.77;;;0.22;;
70951;SDS011;69214;55.880;37.542;2023-12-20T00:38:56;0.90;;;0.20;;
70951;SDS011;69214;55.880;37.542;2023-12-20T00:41:22;0.60;;;0.10;;
70951;SDS011;69214;55.880;37.542;2023-12-20T00:43:48;0.90;;;0.20;;
70951;SDS011;69214;55.880;37.542;2023-12-20T00:46:14;0.30;;;0.10;;
70951;SDS011;69214;55.880;37.542;2023-12-20T00:48:40;2.25;;;0.20;;
70951;SDS011;69214;55.880;37.542;2023-12-20T00:51:07;0.65;;;0.17;;
70951;SDS011;69214;55.880;37.542;2023-12-20T00:53:33;1.03;;;0.10;;
70951;SDS011;69214;55.880;37.542;2023-12-20T00:55:59;0.85;;;0.15;;
70951;SDS011;69214;55.880;37.542;2023-12-20T00:58:25;1.73;;;0.30;;
70951;SDS011;69214;55.880;37.542;2023-12-20T01:00:51;0.50;;;0.10;;
70951;SDS011;69214;55.880;37.542;2023-12-20T01:03:17;0.95;;;0.15;;
70951;SDS011;69214;55.880;37.542;2023-12-20T01:05:43;1.20;;;0.20;;
70951;SDS011;69214;55.880;37.542;2023-12-20T01:08:09;0.67;;;0.10;;
70951;SDS011;69214;55.880;37.542;2023-12-20T01:10:35;0.82;;;0.10;;
70951;SDS011;69214;55.880;37.542;2023-12-20T01:13:01;2.78;;;0.20;;
70951;SDS011;69214;55.880;37.542;2023-12-20T01:15:26;1.00;;;0.20;;
70951;SDS011;69214;55.880;37.542;2023-12-20T01:17:52;0.90;;;0.20;;
70951;SDS011;69214;55.880;37.542;2023-12-20T01:20:18;2.00;;;0.20;;
70951;SDS011;69214;55.880;37.542;2023-12-20T01:22:45;0.60;;;0.20;;
70951;SDS011;69214;55.880;37.542;2023-12-20T01:25:11;1.40;;;0.30;;
70951;SDS011;69214;55.880;37.542;2023-12-20T01:27:37;1.90;;;0.40;;
70951;SDS011;69214;55.880;37.542;2023-12-20T01:30:03;0.97;;;0.30;;
70951;SDS011;69214;55.880;37.542;2023-12-20T01:32:30;1.20;;;0.30;;
70951;SDS011;69214;55.880;37.542;2023-12-20T01:34:55;1.60;;;0.25;;
70951;SDS011;69214;55.880;37.542;2023-12-20T01:37:21;1.10;;;0.27;;
70951;SDS011;69214;55.880;37.542;2023-12-20T01:39:49;1.95;;;0.40;;
70951;SDS011;69214;55.880;37.542;2023-12-20T01:42:15;2.85;;;0.40;;
70951;SDS011;69214;55.880;37.542;2023-12-20T01:44:40;1.07;;;0.23;;
70951;SDS011;69214;55.880;37.542;2023-12-20T01:47:06;2.58;;;0.40;;
70951;SDS011;69214;55.880;37.542;2023-12-20T01:49:33;1.00;;;0.25;;
70951;SDS011;69214;55.880;37.542;2023-12-20T01:51:59;3.83;;;0.32;;
70951;SDS011;69214;55.880;37.542;2023-12-20T01:54:25;1.40;;;0.33;;
70951;SDS011;69214;55.880;37.542;2023-12-20T01:56:50;0.73;;;0.30;;
70951;SDS011;69214;55.880;37.542;2023-12-20T01:59:17;4.55;;;0.47;;
70951;SDS011;69214;55.880;37.542;2023-12-20T02:01:45;1.08;;;0.30;;
70951;SDS011;69214;55.880;37.542;2023-12-20T02:04:11;3.70;;;0.60;;
70951;SDS011;69214;55.880;37.542;2023-12-20T02:06:37;2.35;;;0.70;;
70951;SDS011;69214;55.880;37.542;2023-12-20T02:09:05;1.65;;;0.45;;
70951;SDS011;69214;55.880;37.542;2023-12-20T02:11:33;2.10;;;0.38;;
70951;SDS011;69214;55.880;37.542;2023-12-20T02:14:01;1.25;;;0.30;;
70951;SDS011;69214;55.880;37.542;2023-12-20T02:16:27;1.43;;;0.40;;
70951;SDS011;69214;55.880;37.542;2023-12-20T02:18:53;1.33;;;0.50;;
70951;SDS011;69214;55.880;37.542;2023-12-20T02:21:24;1.05;;;0.32;;
70951;SDS011;69214;55.880;37.542;2023-12-20T02:23:50;1.25;;;0.38;;
70951;SDS011;69214;55.880;37.542;2023-12-20T02:26:16;3.67;;;0.63;;
70951;SDS011;69214;55.880;37.542;2023-12-20T02:28:44;1.25;;;0.35;;
70951;SDS011;69214;55.880;37.542;2023-12-20T02:31:10;1.35;;;0.50;;
70951;SDS011;69214;55.880;37.542;2023-12-20T02:33:35;1.63;;;0.30;;
70951;SDS011;69214;55.880;37.542;2023-12-20T02:36:01;0.77;;;0.17;;
70951;SDS011;69214;55.880;37.542;2023-12-20T02:38:27;1.77;;;0.35;;
70951;SDS011;69214;55.880;37.542;2023-12-20T02:40:53;1.08;;;0.28;;
70951;SDS011;69214;55.880;37.542;2023-12-20T02:43:19;0.77;;;0.20;;
70951;SDS011;69214;55.880;37.542;2023-12-20T02:45:45;1.02;;;0.25;;
70951;SDS011;69214;55.880;37.542;2023-12-20T02:48:11;0.82;;;0.30;;
70951;SDS011;69214;55.880;37.542;2023-12-20T02:50:37;0.85;;;0.20;;
70951;SDS011;69214;55.880;37.542;2023-12-20T02:53:03;1.73;;;0.20;;
70951;SDS011;69214;55.880;37.542;2023-12-20T02:55:29;1.88;;;0.40;;
70951;SDS011;69214;55.880;37.542;2023-12-20T02:57:55;1.40;;;0.30;;
70951;SDS011;69214;55.880;37.542;2023-12-20T03:00:20;1.02;;;0.25;;
70951;SDS011;69214;55.880;37.542;2023-12-20T03:02:46;3.77;;;0.53;;
70951;SDS011;69214;55.880;37.542;2023-12-20T03:05:12;0.57;;;0.13;;
70951;SDS011;69214;55.880;37.542;2023-12-20T03:07:38;3.63;;;0.47;;
70951;SDS011;69214;55.880;37.542;2023-12-20T03:10:04;2.10;;;0.27;;
70951;SDS011;69214;55.880;37.542;2023-12-20T03:12:33;0.93;;;0.25;;
70951;SDS011;69214;55.880;37.542;2023-12-20T03:14:59;2.88;;;0.40;;
70951;SDS011;69214;55.880;37.542;2023-12-20T03:17:24;4.32;;;0.45;;
70951;SDS011;69214;55.880;37.542;2023-12-20T03:19:50;1.40;;;0.40;;
70951;SDS011;69214;55.880;37.542;2023-12-20T03:22:17;1.75;;;0.30;;
70951;SDS011;69214;55.880;37.542;2023-12-20T03:24:43;1.55;;;0.30;;
70951;SDS011;69214;55.880;37.542;2023-12-20T03:27:09;2.20;;;0.37;;
70951;SDS011;69214;55.880;37.542;2023-12-20T03:29:34;3.72;;;0.43;;
70951;SDS011;69214;55.880;37.542;2023-12-20T03:32:00;1.40;;;0.32;;
70951;SDS011;69214;55.880;37.542;2023-12-20T03:34:26;1.23;;;0.30;;
70951;SDS011;69214;55.880;37.542;2023-12-20T03:36:53;1.33;;;0.40;;
70951;SDS011;69214;55.880;37.542;2023-12-20T03:39:18;2.10;;;0.38;;
70951;SDS011;69214;55.880;37.542;2023-12-20T03:41:44;0.93;;;0.20;;
70951;SDS011;69214;55.880;37.542;2023-12-20T03:44:10;2.63;;;0.40;;
70951;SDS011;69214;55.880;37.542;2023-12-20T03:46:36;3.03;;;0.40;;
70951;SDS011;69214;55.880;37.542;2023-12-20T03:49:02;1.13;;;0.30;;
70951;SDS011;69214;55.880;37.542;2023-12-20T03:51:27;1.33;;;0.30;;
70951;SDS011;69214;55.880;37.542;2023-12-20T03:53:53;1.83;;;0.32;;
70951;SDS011;69214;55.880;37.542;2023-12-20T03:56:19;1.67;;;0.40;;
70951;SDS011;69214;55.880;37.542;2023-12-20T03:58:45;1.55;;;0.40;;
70951;SDS011;69214;55.880;37.542;2023-12-20T04:01:11;3.07;;;0.20;;
70951;SDS011;69214;55.880;37.542;2023-12-20T04:03:39;2.00;;;0.40;;
70951;SDS011;69214;55.880;37.542;2023-12-20T04:06:06;3.17;;;0.50;;
70951;SDS011;69214;55.880;37.542;2023-12-20T04:08:31;1.40;;;0.47;;
70951;SDS011;69214;55.880;37.542;2023-12-20T04:10:57;4.00;;;0.50;;
70951;SDS011;69214;55.880;37.542;2023-12-20T04:13:23;2.08;;;0.50;;
70951;SDS011;69214;55.880;37.542;2023-12-20T04:15:49;2.27;;;0.40;;
70951;SDS011;69214;55.880;37.542;2023-12-20T04:18:16;1.63;;;0.47;;
70951;SDS011;69214;55.880;37.542;2023-12-20T04:20:42;1.70;;;0.60;;
70951;SDS011;69214;55.880;37.542;2023-12-20T04:23:08;2.25;;;0.57;;
70951;SDS011;69214;55.880;37.542;2023-12-20T04:25:34;2.77;;;0.77;;
70951;SDS011;69214;55.880;37.542;2023-12-20T04:27:59;3.83;;;0.80;;
70951;SDS011;69214;55.880;37.542;2023-12-20T04:30:25;2.95;;;0.60;;
70951;SDS011;69214;55.880;37.542;2023-12-20T04:32:51;2.60;;;0.57;;
70951;SDS011;69214;55.880;37.542;2023-12-20T04:35:17;2.03;;;0.77;;
70951;SDS011;69214;55.880;37.542;2023-12-20T04:37:45;2.53;;;0.47;;
70951;SDS011;69214;55.880;37.542;2023-12-20T04:40:15;1.95;;;0.57;;
70951;SDS011;69214;55.880;37.542;2023-12-20T04:42:41;2.30;;;0.55;;
70951;SDS011;69214;55.880;37.542;2023-12-20T04:45:07;2.42;;;0.75;;
70951;SDS011;69214;55.880;37.542;2023-12-20T04:47:33;2.17;;;0.73;;
70951;SDS011;69214;55.880;37.542;2023-12-20T04:49:59;3.38;;;0.60;;
70951;SDS011;69214;55.880;37.542;2023-12-20T04:52:25;5.47;;;0.77;;
70951;SDS011;69214;55.880;37.542;2023-12-20T04:54:51;2.47;;;0.73;;
70951;SDS011;69214;55.880;37.542;2023-12-20T04:57:17;2.30;;;0.40;;
70951;SDS011;69214;55.880;37.542;2023-12-20T04:59:42;1.60;;;0.52;;
70951;SDS011;69214;55.880;37.542;2023-12-20T05:02:08;2.10;;;0.55;;
70951;SDS011;69214;55.880;37.542;2023-12-20T05:04:34;1.83;;;0.37;;
70951;SDS011;69214;55.880;37.542;2023-12-20T05:07:00;2.08;;;0.50;;
70951;SDS011;69214;55.880;37.542;2023-12-20T05:09:26;1.75;;;0.50;;
70951;SDS011;69214;55.880;37.542;2023-12-20T05:11:52;1.90;;;0.33;;
70951;SDS011;69214;55.880;37.542;2023-12-20T05:14:18;2.17;;;0.65;;
70951;SDS011;69214;55.880;37.542;2023-12-20T05:16:44;1.27;;;0.30;;
70951;SDS011;69214;55.880;37.542;2023-12-20T05:19:11;1.10;;;0.38;;
70951;SDS011;69214;55.880;37.542;2023-12-20T05:21:37;3.10;;;0.60;;
70951;SDS011;69214;55.880;37.542;2023-12-20T05:24:03;1.95;;;0.60;;
70951;SDS011;69214;55.880;37.542;2023-12-20T05:26:29;2.42;;;0.47;;
70951;SDS011;69214;55.880;37.542;2023-12-20T05:28:55;1.80;;;0.50;;
70951;SDS011;69214;55.880;37.542;2023-12-20T05:31:21;2.07;;;0.43;;
70951;SDS011;69214;55.880;37.542;2023-12-20T05:33:47;1.58;;;0.30;;
70951;SDS011;69214;55.880;37.542;2023-12-20T05:36:13;1.10;;;0.30;;
70951;SDS011;69214;55.880;37.542;2023-12-20T05:38:40;1.27;;;0.30;;
70951;SDS011;69214;55.880;37.542;2023-12-20T05:41:06;2.10;;;0.43;;
70951;SDS011;69214;55.880;37.542;2023-12-20T05:43:32;1.05;;;0.22;;
70951;SDS011;69214;55.880;37.542;2023-12-20T05:45:58;2.05;;;0.40;;
70951;SDS011;69214;55.880;37.542;2023-12-20T05:48:24;1.60;;;0.40;;
70951;SDS011;69214;55.880;37.542;2023-12-20T05:50:50;2.33;;;0.50;;
70951;SDS011;69214;55.880;37.542;2023-12-20T05:53:16;1.70;;;0.40;;
70951;SDS011;69214;55.880;37.542;2023-12-20T05:55:42;1.27;;;0.40;;
70951;SDS011;69214;55.880;37.542;2023-12-20T05:58:08;1.40;;;0.30;;
70951;SDS011;69214;55.880;37.542;2023-12-20T06:00:34;2.75;;;0.73;;
70951;SDS011;69214;55.880;37.542;2023-12-20T06:03:00;1.23;;;0.47;;
70951;SDS011;69214;55.880;37.542;2023-12-20T06:05:26;1.90;;;0.50;;
70951;SDS011;69214;55.880;37.542;2023-12-20T06:07:52;2.72;;;0.90;;
70951;SDS011;69214;55.880;37.542;2023-12-20T06:10:18;1.83;;;0.60;;
70951;SDS011;69214;55.880;37.542;2023-12-20T06:12:44;4.78;;;0.88;;
70951;SDS011;69214;55.880;37.542;2023-12-20T06:15:12;4.30;;;0.80;;
70951;SDS011;69214;55.880;37.542;2023-12-20T06:17:38;4.25;;;0.80;;
70951;SDS011;69214;55.880;37.542;2023-12-20T06:20:04;5.40;;;0.90;;
70951;SDS011;69214;55.880;37.542;2023-12-20T06:22:34;4.10;;;1.27;;
70951;SDS011;69214;55.880;37.542;2023-12-20T06:25:00;3.47;;;0.90;;
70951;SDS011;69214;55.880;37.542;2023-12-20T06:27:26;3.03;;;0.90;;
70951;SDS011;69214;55.880;37.542;2023-12-20T06:29:52;3.83;;;0.80;;
70951;SDS011;69214;55.880;37.542;2023-12-20T06:32:17;4.70;;;0.65;;
70951;SDS011;69214;55.880;37.542;2023-12-20T06:34:43;3.88;;;1.00;;
70951;SDS011;69214;55.880;37.542;2023-12-20T06:37:10;2.63;;;1.00;;
70951;SDS011;69214;55.880;37.542;2023-12-20T06:39:35;7.97;;;0.98;;
70951;SDS011;69214;55.880;37.542;2023-12-20T06:42:02;1.92;;;0.68;;
70951;SDS011;69214;55.880;37.542;2023-12-20T06:44:28;4.22;;;0.80;;
70951;SDS011;69214;55.880;37.542;2023-12-20T06:46:55;4.80;;;1.23;;
70951;SDS011;69214;55.880;37.542;2023-12-20T06:49:20;5.07;;;1.20;;
70951;SDS011;69214;55.880;37.542;2023-12-20T06:51:46;4.60;;;1.02;;
70951;SDS011;69214;55.880;37.542;2023-12-20T06:54:12;7.67;;;1.17;;
70951;SDS011;69214;55.880;37.542;2023-12-20T06:56:38;5.18;;;1.20;;
70951;SDS011;69214;55.880;37.542;2023-12-20T06:59:04;5.85;;;1.17;;
70951;SDS011;69214;55.880;37.542;2023-12-20T07:01:30;4.37;;;1.20;;
70951;SDS011;69214;55.880;37.542;2023-12-20T07:03:56;6.53;;;1.75;;
70951;SDS011;69214;55.880;37.542;2023-12-20T07:06:22;4.72;;;1.20;;
70951;SDS011;69214;55.880;37.542;2023-12-20T07:08:50;3.28;;;1.30;;
70951;SDS011;69214;55.880;37.542;2023-12-20T07:11:16;6.07;;;1.30;;
70951;SDS011;69214;55.880;37.542;2023-12-20T07:16:40;3.92;;;1.38;;
70951;SDS011;69214;55.880;37.542;2023-12-20T07:19:06;5.38;;;1.13;;
70951;SDS011;69214;55.880;37.542;2023-12-20T07:21:32;2.97;;;0.87;;
70951;SDS011;69214;55.880;37.542;2023-12-20T07:23:57;5.95;;;1.05;;
70951;SDS011;69214;55.880;37.542;2023-12-20T07:26:23;4.17;;;1.03;;
70951;SDS011;69214;55.880;37.542;2023-12-20T07:28:49;4.97;;;1.10;;
70951;SDS011;69214;55.880;37.542;2023-12-20T07:31:16;6.38;;;1.50;;
70951;SDS011;69214;55.880;37.542;2023-12-20T07:33:44;3.40;;;1.13;;
70951;SDS011;69214;55.880;37.542;2023-12-20T07:36:11;3.05;;;0.88;;
70951;SDS011;69214;55.880;37.542;2023-12-20T07:38:37;3.75;;;1.05;;
70951;SDS011;69214;55.880;37.542;2023-12-20T07:41:03;4.10;;;1.07;;
70951;SDS011;69214;55.880;37.542;2023-12-20T07:43:30;2.08;;;0.65;;
70951;SDS011;69214;55.880;37.542;2023-12-20T07:45:56;3.67;;;1.25;;
70951;SDS011;69214;55.880;37.542;2023-12-20T07:48:22;4.30;;;0.97;;
70951;SDS011;69214;55.880;37.542;2023-12-20T07:50:47;2.45;;;0.80;;
70951;SDS011;69214;55.880;37.542;2023-12-20T07:53:13;1.95;;;0.50;;
70951;SDS011;69214;55.880;37.542;2023-12-20T07:55:39;1.70;;;0.60;;
70951;SDS011;69214;55.880;37.542;2023-12-20T07:58:05;3.30;;;0.88;;
70951;SDS011;69214;55.880;37.542;2023-12-20T08:00:31;5.07;;;0.98;;
70951;SDS011;69214;55.880;37.542;2023-12-20T08:02:57;2.77;;;0.83;;
70951;SDS011;69214;55.880;37.542;2023-12-20T08:05:22;4.05;;;1.17;;
70951;SDS011;69214;55.880;37.542;2023-12-20T08:07:48;3.67;;;0.93;;
70951;SDS011;69214;55.880;37.542;2023-12-20T08:10:14;2.63;;;0.63;;
70951;SDS011;69214;55.880;37.542;2023-12-20T08:12:40;7.13;;;0.77;;
70951;SDS011;69214;55.880;37.542;2023-12-20T08:15:06;3.72;;;0.90;;
70951;SDS011;69214;55.880;37.542;2023-12-20T08:17:32;2.83;;;0.73;;
70951;SDS011;69214;55.880;37.542;2023-12-20T08:19:58;4.37;;;0.97;;
70951;SDS011;69214;55.880;37.542;2023-12-20T08:22:25;3.35;;;0.90;;
70951;SDS011;69214;55.880;37.542;2023-12-20T08:24:51;6.20;;;0.80;;
70951;SDS011;69214;55.880;37.542;2023-12-20T08:27:17;2.10;;;0.80;;
70951;SDS011;69214;55.880;37.542;2023-12-20T08:29:43;3.90;;;0.95;;
70951;SDS011;69214;55.880;37.542;2023-12-20T08:32:10;2.55;;;0.80;;
70951;SDS011;69214;55.880;37.542;2023-12-20T08:34:36;2.80;;;0.70;;
70951;SDS011;69214;55.880;37.542;2023-12-20T08:37:02;3.10;;;0.70;;
70951;SDS011;69214;55.880;37.542;2023-12-20T08:39:28;2.60;;;0.73;;
70951;SDS011;69214;55.880;37.542;2023-12-20T08:41:55;3.33;;;0.52;;
70951;SDS011;69214;55.880;37.542;2023-12-20T08:44:21;3.37;;;0.87;;
70951;SDS011;69214;55.880;37.542;2023-12-20T08:46:48;3.38;;;1.00;;
70951;SDS011;69214;55.880;37.542;2023-12-20T08:49:13;4.93;;;1.00;;
70951;SDS011;69214;55.880;37.542;2023-12-20T08:51:39;4.80;;;0.97;;
70951;SDS011;69214;55.880;37.542;2023-12-20T08:54:06;7.22;;;0.70;;
70951;SDS011;69214;55.880;37.542;2023-12-20T08:56:34;2.88;;;0.75;;
70951;SDS011;69214;55.880;37.542;2023-12-20T08:59:00;6.03;;;0.77;;
70951;SDS011;69214;55.880;37.542;2023-12-20T09:01:25;3.37;;;0.70;;
70951;SDS011;69214;55.880;37.542;2023-12-20T09:03:51;2.65;;;0.60;;
70951;SDS011;69214;55.880;37.542;2023-12-20T09:06:17;4.22;;;0.90;;
70951;SDS011;69214;55.880;37.542;2023-12-20T09:08:43;3.22;;;0.88;;
70951;SDS011;69214;55.880;37.542;2023-12-20T09:11:09;3.27;;;0.80;;
70951;SDS011;69214;55.880;37.542;2023-12-20T09:13:35;3.25;;;1.08;;
70951;SDS011;69214;55.880;37.542;2023-12-20T09:16:02;3.10;;;0.75;;
70951;SDS011;69214;55.880;37.542;2023-12-20T09:18:28;5.65;;;0.98;;
70951;SDS011;69214;55.880;37.542;2023-12-20T09:20:54;4.97;;;0.93;;
70951;SDS011;69214;55.880;37.542;2023-12-20T09:23:20;3.35;;;0.77;;
70951;SDS011;69214;55.880;37.542;2023-12-20T09:25:46;4.38;;;0.95;;
70951;SDS011;69214;55.880;37.542;2023-12-20T09:28:12;8.90;;;1.10;;
70951;SDS011;69214;55.880;37.542;2023-12-20T09:30:38;4.33;;;1.30;;
70951;SDS011;69214;55.880;37.542;2023-12-20T09:33:05;3.15;;;1.10;;
70951;SDS011;69214;55.880;37.542;2023-12-20T09:35:32;5.28;;;1.35;;
70951;SDS011;69214;55.880;37.542;2023-12-20T09:37:58;3.35;;;0.60;;
70951;SDS011;69214;55.880;37.542;2023-12-20T09:40:25;3.13;;;1.17;;
70951;SDS011;69214;55.880;37.542;2023-12-20T09:42:58;6.35;;;0.80;;
70951;SDS011;69214;55.880;37.542;2023-12-20T09:45:30;2.65;;;0.73;;
70951;SDS011;69214;55.880;37.542;2023-12-20T09:47:57;3.50;;;0.80;;
70951;SDS011;69214;55.880;37.542;2023-12-20T09:50:23;2.20;;;0.60;;
70951;SDS011;69214;55.880;37.542;2023-12-20T09:52:50;2.67;;;0.70;;
70951;SDS011;69214;55.880;37.542;2023-12-20T09:55:17;3.70;;;0.82;;
70951;SDS011;69214;55.880;37.542;2023-12-20T09:57:45;3.05;;;0.70;;
70951;SDS011;69214;55.880;37.542;2023-12-20T10:00:12;2.53;;;0.73;;
70951;SDS011;69214;55.880;37.542;2023-12-20T10:02:41;3.97;;;0.60;;
70951;SDS011;69214;55.880;37.542;2023-12-20T10:05:11;3.87;;;0.90;;
70951;SDS011;69214;55.880;37.542;2023-12-20T10:07:42;2.47;;;0.75;;
70951;SDS011;69214;55.880;37.542;2023-12-20T10:10:07;2.67;;;0.77;;
70951;SDS011;69214;55.880;37.542;2023-12-20T10:12:34;3.83;;;0.95;;
70951;SDS011;69214;55.880;37.542;2023-12-20T10:15:00;3.30;;;0.80;;
70951;SDS011;69214;55.880;37.542;2023-12-20T10:17:26;2.25;;;0.50;;
70951;SDS011;69214;55.880;37.542;2023-12-20T10:19:54;3.78;;;0.95;;
70951;SDS011;69214;55.880;37.542;2023-12-20T10:22:21;2.53;;;0.63;;
70951;SDS011;69214;55.880;37.542;2023-12-20T10:24:47;2.53;;;0.83;;
70951;SDS011;69214;55.880;37.542;2023-12-20T10:27:13;4.75;;;0.95;;
70951;SDS011;69214;55.880;37.542;2023-12-20T10:29:38;4.72;;;0.80;;
70951;SDS011;69214;55.880;37.542;2023-12-20T10:32:24;2.97;;;0.83;;
70951;SDS011;69214;55.880;37.542;2023-12-20T10:34:51;2.85;;;0.77;;
70951;SDS011;69214;55.880;37.542;2023-12-20T10:37:18;2.20;;;0.47;;
70951;SDS011;69214;55.880;37.542;2023-12-20T10:39:44;2.95;;;0.73;;
70951;SDS011;69214;55.880;37.542;2023-12-20T10:42:16;2.60;;;0.70;;
70951;SDS011;69214;55.880;37.542;2023-12-20T10:44:42;3.73;;;0.60;;
70951;SDS011;69214;55.880;37.542;2023-12-20T10:47:09;4.95;;;0.70;;
70951;SDS011;69214;55.880;37.542;2023-12-20T10:49:37;1.70;;;0.45;;
70951;SDS011;69214;55.880;37.542;2023-12-20T10:52:03;3.15;;;0.90;;
70951;SDS011;69214;55.880;37.542;2023-12-20T10:54:31;1.80;;;0.50;;
70951;SDS011;69214;55.880;37.542;2023-12-20T10:56:57;2.47;;;0.80;;
70951;SDS011;69214;55.880;37.542;2023-12-20T10:59:24;2.70;;;0.60;;
70951;SDS011;69214;55.880;37.542;2023-12-20T11:01:50;2.65;;;0.65;;
70951;SDS011;69214;55.880;37.542;2023-12-20T11:04:22;5.55;;;0.70;;
70951;SDS011;69214;55.880;37.542;2023-12-20T11:06:53;4.25;;;0.98;;
70951;SDS011;69214;55.880;37.542;2023-12-20T11:09:26;3.40;;;0.67;;
70951;SDS011;69214;55.880;37.542;2023-12-20T11:12:21;1.42;;;0.50;;
70951;SDS011;69214;55.880;37.542;2023-12-20T11:14:52;2.20;;;0.60;;
70951;SDS011;69214;55.880;37.542;2023-12-20T11:17:22;3.53;;;0.50;;
70951;SDS011;69214;55.880;37.542;2023-12-20T11:22:21;1.57;;;0.40;;
70951;SDS011;69214;55.880;37.542;2023-12-20T11:24:52;1.73;;;0.47;;
70951;SDS011;69214;55.880;37.542;2023-12-20T11:27:19;3.60;;;0.55;;
70951;SDS011;69214;55.880;37.542;2023-12-20T11:29:56;2.75;;;0.50;;
70951;SDS011;69214;55.880;37.542;2023-12-20T11:34:51;2.87;;;0.70;;
70951;SDS011;69214;55.880;37.542;2023-12-20T11:37:19;2.42;;;0.40;;
70951;SDS011;69214;55.880;37.542;2023-12-20T11:39:53;2.88;;;0.30;;
70951;SDS011;69214;55.880;37.542;2023-12-20T11:42:26;2.15;;;0.60;;
70951;SDS011;69214;55.880;37.542;2023-12-20T11:44:53;1.83;;;0.52;;
70951;SDS011;69214;55.880;37.542;2023-12-20T11:47:19;2.10;;;0.47;;
70951;SDS011;69214;55.880;37.542;2023-12-20T11:49:48;2.70;;;0.60;;
70951;SDS011;69214;55.880;37.542;2023-12-20T11:52:14;2.92;;;0.63;;
70951;SDS011;69214;55.880;37.542;2023-12-20T11:54:40;1.83;;;0.40;;
70951;SDS011;69214;55.880;37.542;2023-12-20T11:57:06;1.30;;;0.30;;
70951;SDS011;69214;55.880;37.542;2023-12-20T11:59:32;1.52;;;0.40;;
70951;SDS011;69214;55.880;37.542;2023-12-20T12:01:58;2.80;;;0.60;;
70951;SDS011;69214;55.880;37.542;2023-12-20T12:04:26;2.13;;;0.63;;
70951;SDS011;69214;55.880;37.542;2023-12-20T12:06:53;2.38;;;0.50;;
70951;SDS011;69214;55.880;37.542;2023-12-20T12:09:19;3.60;;;0.50;;
70951;SDS011;69214;55.880;37.542;2023-12-20T12:11:45;2.65;;;0.50;;
70951;SDS011;69214;55.880;37.542;2023-12-20T12:14:11;2.23;;;0.53;;
70951;SDS011;69214;55.880;37.542;2023-12-20T12:16:37;2.10;;;0.35;;
70951;SDS011;69214;55.880;37.542;2023-12-20T12:19:03;1.58;;;0.40;;
70951;SDS011;69214;55.880;37.542;2023-12-20T12:21:29;1.42;;;0.30;;
70951;SDS011;69214;55.880;37.542;2023-12-20T12:24:06;1.57;;;0.40;;
70951;SDS011;69214;55.880;37.542;2023-12-20T12:26:34;1.80;;;0.38;;
70951;SDS011;69214;55.880;37.542;2023-12-20T12:29:00;3.67;;;0.38;;
70951;SDS011;69214;55.880;37.542;2023-12-20T12:31:26;2.67;;;0.30;;
70951;SDS011;69214;55.880;37.542;2023-12-20T12:33:52;1.50;;;0.30;;
70951;SDS011;69214;55.880;37.542;2023-12-20T12:36:18;1.63;;;0.40;;
70951;SDS011;69214;55.880;37.542;2023-12-20T12:38:44;1.58;;;0.40;;
70951;SDS011;69214;55.880;37.542;2023-12-20T12:41:12;0.95;;;0.20;;
70951;SDS011;69214;55.880;37.542;2023-12-20T12:43:38;1.10;;;0.20;;
70951;SDS011;69214;55.880;37.542;2023-12-20T12:46:04;1.48;;;0.38;;
70951;SDS011;69214;55.880;37.542;2023-12-20T12:48:30;3.85;;;0.30;;
70951;SDS011;69214;55.880;37.542;2023-12-20T12:50:56;1.88;;;0.40;;
70951;SDS011;69214;55.880;37.542;2023-12-20T12:53:25;5.50;;;0.30;;
70951;SDS011;69214;55.880;37.542;2023-12-20T12:55:52;1.60;;;0.30;;
70951;SDS011;69214;55.880;37.542;2023-12-20T12:58:20;1.40;;;0.30;;
70951;SDS011;69214;55.880;37.542;2023-12-20T13:00:46;1.75;;;0.22;;
70951;SDS011;69214;55.880;37.542;2023-12-20T13:03:12;1.85;;;0.20;;
70951;SDS011;69214;55.880;37.542;2023-12-20T13:05:38;1.77;;;0.27;;
70951;SDS011;69214;55.880;37.542;2023-12-20T13:08:04;1.05;;;0.20;;
70951;SDS011;69214;55.880;37.542;2023-12-20T13:10:30;0.90;;;0.20;;
70951;SDS011;69214;55.880;37.542;2023-12-20T13:12:56;2.00;;;0.30;;
70951;SDS011;69214;55.880;37.542;2023-12-20T13:15:23;0.50;;;0.10;;
70951;SDS011;69214;55.880;37.542;2023-12-20T13:17:49;0.98;;;0.17;;
70951;SDS011;69214;55.880;37.542;2023-12-20T13:20:17;1.58;;;0.30;;
70951;SDS011;69214;55.880;37.542;2023-12-20T13:22:43;1.77;;;0.20;;
70951;SDS011;69214;55.880;37.542;2023-12-20T13:25:08;1.60;;;0.40;;
70951;SDS011;69214;55.880;37.542;2023-12-20T13:27:34;1.15;;;0.40;;
70951;SDS011;69214;55.880;37.542;2023-12-20T13:30:00;1.45;;;0.20;;
70951;SDS011;69214;55.880;37.542;2023-12-20T13:32:27;1.67;;;0.30;;
70951;SDS011;69214;55.880;37.542;2023-12-20T13:34:53;2.28;;;0.30;;
70951;SDS011;69214;55.880;37.542;2023-12-20T13:37:18;0.52;;;0.10;;
70951;SDS011;69214;55.880;37.542;2023-12-20T13:39:44;0.90;;;0.20;;
70951;SDS011;69214;55.880;37.542;2023-12-20T13:42:10;1.35;;;0.30;;
70951;SDS011;69214;55.880;37.542;2023-12-20T13:44:36;3.22;;;0.28;;
70951;SDS011;69214;55.880;37.542;2023-12-20T13:47:02;1.40;;;0.30;;
70951;SDS011;69214;55.880;37.542;2023-12-20T13:49:28;1.48;;;0.30;;
70951;SDS011;69214;55.880;37.542;2023-12-20T13:51:54;1.25;;;0.28;;
70951;SDS011;69214;55.880;37.542;2023-12-20T13:54:21;1.05;;;0.30;;
70951;SDS011;69214;55.880;37.542;2023-12-20T13:56:47;1.73;;;0.23;;
70951;SDS011;69214;55.880;37.542;2023-12-20T13:59:13;2.17;;;0.50;;
70951;SDS011;69214;55.880;37.542;2023-12-20T14:01:40;2.03;;;0.30;;
70951;SDS011;69214;55.880;37.542;2023-12-20T14:04:06;1.15;;;0.22;;
70951;SDS011;69214;55.880;37.542;2023-12-20T14:06:32;3.47;;;0.40;;
70951;SDS011;69214;55.880;37.542;2023-12-20T14:08:58;3.22;;;0.40;;
70951;SDS011;69214;55.880;37.542;2023-12-20T14:11:28;1.80;;;0.40;;
70951;SDS011;69214;55.880;37.542;2023-12-20T14:13:54;3.10;;;0.40;;
70951;SDS011;69214;55.880;37.542;2023-12-20T14:16:23;3.50;;;0.40;;
70951;SDS011;69214;55.880;37.542;2023-12-20T14:18:50;1.73;;;0.37;;
70951;SDS011;69214;55.880;37.542;2023-12-20T14:21:17;1.60;;;0.32;;
70951;SDS011;69214;55.880;37.542;2023-12-20T14:23:45;1.70;;;0.22;;
70951;SDS011;69214;55.880;37.542;2023-12-20T14:26:11;3.00;;;0.70;;
70951;SDS011;69214;55.880;37.542;2023-12-20T14:28:42;2.22;;;0.43;;
70951;SDS011;69214;55.880;37.542;2023-12-20T14:31:09;2.13;;;0.40;;
70951;SDS011;69214;55.880;37.542;2023-12-20T14:33:36;1.45;;;0.30;;
70951;SDS011;69214;55.880;37.542;2023-12-20T14:36:04;8.35;;;0.93;;